Time;durP1;ratioP1;P1;durP2;ratioP2;P2;SDS_P1;SDS_P2;PMS_P1;PMS_P2;Temp;Humidity;BMP_temperature;BMP_pressure;BME280_temperature;BME280_humidity;BME280_pressure;Samples;Min_cycle;Max_cycle;Signal;HPM_P1;HPM_P2
2022/07/24 00:02:05;;;;;;;2.10;1.90;;;16.30;90.70;;;;;;5052593;28;20983;-60
2022/07/24 00:04:33;;;;;;;2.63;2.10;;;16.20;90.80;;;;;;5052662;28;20472;-60
2022/07/24 00:07:00;;;;;;;2.17;2.07;;;16.20;91.10;;;;;;5052970;28;20483;-61
2022/07/24 00:09:27;;;;;;;2.80;2.20;;;16.10;91.20;;;;;;5052333;28;20865;-61
2022/07/24 00:11:56;;;;;;;2.27;2.07;;;16.10;91.50;;;;;;5052665;28;20476;-60
2022/07/24 00:14:23;;;;;;;3.13;2.00;;;16.10;91.70;;;;;;5052454;28;20582;-60
2022/07/24 00:16:51;;;;;;;2.80;2.10;;;16.00;91.80;;;;;;5052341;28;20459;-61
2022/07/24 00:19:18;;;;;;;3.20;2.13;;;16.00;92.10;;;;;;5051932;28;20995;-61
2022/07/24 00:21:45;;;;;;;5.30;2.73;;;16.00;92.30;;;;;;5053204;28;20487;-61
2022/07/24 00:24:13;;;;;;;2.70;2.20;;;15.90;92.30;;;;;;5052668;28;20503;-61
2022/07/24 00:26:40;;;;;;;4.03;2.27;;;15.90;92.50;;;;;;5056202;28;20502;-61
2022/07/24 00:29:09;;;;;;;2.03;1.87;;;15.80;92.70;;;;;;5056502;28;21017;-61
2022/07/24 00:31:36;;;;;;;2.80;2.30;;;15.80;92.80;;;;;;5057104;28;20517;-61
2022/07/24 00:34:03;;;;;;;5.60;2.63;;;15.80;93.00;;;;;;5056557;28;20475;-61
2022/07/24 00:36:31;;;;;;;2.80;2.30;;;15.80;93.20;;;;;;5056431;28;20990;-60
2022/07/24 00:38:58;;;;;;;2.10;1.90;;;15.80;93.30;;;;;;5056403;28;20456;-59
2022/07/24 00:41:25;;;;;;;2.60;2.33;;;15.70;93.30;;;;;;5056202;28;20464;-59
2022/07/24 00:44:07;;;;;;;2.43;2.23;;;15.70;93.60;;;;;;5055948;28;20940;-59
2022/07/24 00:46:37;;;;;;;2.33;2.13;;;15.70;93.70;;;;;;5055845;28;20558;-60
2022/07/24 00:49:06;;;;;;;2.73;2.30;;;15.60;93.90;;;;;;5056084;28;20444;-60
2022/07/24 00:51:35;;;;;;;5.70;2.40;;;15.60;93.90;;;;;;5055956;28;20516;-58
2022/07/24 00:54:04;;;;;;;5.80;2.30;;;15.60;94.10;;;;;;5055844;28;20479;-61
2022/07/24 00:56:32;;;;;;;3.00;2.03;;;15.60;94.20;;;;;;5055953;28;20441;-61
2022/07/24 00:59:00;;;;;;;2.80;2.60;;;15.50;94.30;;;;;;5055982;28;20448;-61
2022/07/24 01:01:28;;;;;;;3.30;2.17;;;15.50;94.50;;;;;;5044697;28;20968;-61
2022/07/24 01:03:57;;;;;;;6.20;2.30;;;15.50;94.60;;;;;;5055895;28;20480;-58
2022/07/24 01:06:25;;;;;;;4.90;3.20;;;15.50;94.60;;;;;;5055625;28;20474;-61
2022/07/24 01:08:53;;;;;;;3.00;2.50;;;15.50;94.70;;;;;;5055766;28;20494;-61
2022/07/24 01:11:21;;;;;;;6.20;2.47;;;15.50;94.90;;;;;;5055846;28;20805;-61
2022/07/24 01:13:50;;;;;;;2.40;2.20;;;15.40;95.00;;;;;;5055686;28;20444;-60
2022/07/24 01:16:18;;;;;;;2.40;2.20;;;15.40;95.00;;;;;;5056024;28;20476;-60
2022/07/24 01:18:45;;;;;;;2.97;2.70;;;15.40;95.00;;;;;;5055297;28;20440;-60
2022/07/24 01:21:14;;;;;;;3.07;2.47;;;15.40;95.10;;;;;;5055943;28;20468;-61
2022/07/24 01:23:42;;;;;;;3.00;2.53;;;15.40;95.20;;;;;;5055913;28;20502;-61
2022/07/24 01:26:10;;;;;;;3.57;2.43;;;15.30;95.30;;;;;;5055844;28;20494;-60
2022/07/24 01:28:37;;;;;;;3.43;2.47;;;15.30;95.50;;;;;;5055264;28;20444;-61
2022/07/24 01:31:04;;;;;;;3.23;2.60;;;15.20;95.50;;;;;;5057434;28;20452;-61
2022/07/24 01:33:32;;;;;;;3.83;2.43;;;15.20;95.60;;;;;;5055473;28;20444;-59
2022/07/24 01:35:59;;;;;;;5.03;3.20;;;15.20;95.90;;;;;;5055394;28;20523;-61
2022/07/24 01:38:28;;;;;;;2.87;2.60;;;15.20;96.10;;;;;;5054590;28;20448;-60
2022/07/24 01:40:55;;;;;;;2.73;2.50;;;15.10;96.30;;;;;;5055677;28;20483;-61
2022/07/24 01:43:22;;;;;;;3.30;3.00;;;15.20;96.70;;;;;;5055254;28;20506;-60
2022/07/24 01:45:50;;;;;;;3.23;2.93;;;15.10;97.00;;;;;;5055661;28;20449;-61
2022/07/24 01:48:17;;;;;;;5.07;2.80;;;15.10;97.50;;;;;;5054865;28;20490;-61
2022/07/24 01:50:44;;;;;;;4.20;3.27;;;15.10;97.90;;;;;;5056366;28;20444;-61
2022/07/24 01:53:12;;;;;;;4.27;2.90;;;15.10;98.30;;;;;;5058675;28;20513;-61
2022/07/24 01:55:40;;;;;;;4.10;2.90;;;15.00;98.60;;;;;;5058858;28;20983;-60
2022/07/24 01:58:08;;;;;;;4.30;3.00;;;15.00;99.10;;;;;;5058727;28;20482;-60
2022/07/24 02:00:35;;;;;;;3.53;3.03;;;15.00;99.50;;;;;;5055851;28;20443;-60
2022/07/24 02:03:03;;;;;;;4.23;2.70;;;15.00;99.90;;;;;;5055003;28;20472;-60
2022/07/24 02:05:31;;;;;;;3.87;2.70;;;15.00;99.90;;;;;;5054751;28;20449;-60
2022/07/24 02:07:59;;;;;;;3.63;3.20;;;14.90;99.90;;;;;;5054669;28;20451;-60
2022/07/24 02:10:28;;;;;;;3.30;2.90;;;14.90;99.90;;;;;;5055042;28;20451;-61
2022/07/24 02:12:57;;;;;;;3.70;3.40;;;14.90;99.90;;;;;;5054562;28;20526;-60
2022/07/24 02:15:25;;;;;;;4.30;3.30;;;14.80;99.90;;;;;;5054845;28;20518;-60
2022/07/24 02:17:54;;;;;;;2.87;2.67;;;14.80;99.90;;;;;;5054440;28;20475;-60
2022/07/24 02:20:22;;;;;;;3.73;3.30;;;14.80;99.90;;;;;;5035166;28;20502;-60
2022/07/24 02:22:49;;;;;;;3.73;3.33;;;14.70;99.90;;;;;;5045982;28;20473;-59
2022/07/24 02:25:17;;;;;;;2.70;2.30;;;14.70;99.90;;;;;;5054853;28;20495;-60
2022/07/24 02:27:44;;;;;;;3.70;3.13;;;14.70;99.90;;;;;;5054380;28;20478;-60
2022/07/24 02:30:15;;;;;;;5.23;3.00;;;14.70;99.90;;;;;;5053461;28;20943;-61
2022/07/24 02:32:43;;;;;;;3.53;3.23;;;14.70;99.90;;;;;;5054214;28;20521;-60
2022/07/24 02:35:11;;;;;;;4.27;3.40;;;14.70;99.90;;;;;;5054186;28;20476;-60
2022/07/24 02:37:39;;;;;;;9.00;2.93;;;14.70;99.90;;;;;;5054171;28;20448;-60
2022/07/24 02:40:08;;;;;;;4.40;2.97;;;14.70;99.90;;;;;;5054444;28;20847;-59
2022/07/24 02:42:36;;;;;;;4.00;3.50;;;14.60;99.90;;;;;;5054140;28;20522;-59
2022/07/24 02:45:05;;;;;;;4.33;3.10;;;14.60;99.90;;;;;;5053914;28;20444;-60
2022/07/24 02:47:34;;;;;;;3.07;2.30;;;14.60;99.90;;;;;;5054338;28;20444;-60
2022/07/24 02:50:01;;;;;;;4.80;2.80;;;14.50;99.90;;;;;;5051379;28;20452;-61
2022/07/24 02:52:29;;;;;;;4.23;2.90;;;14.60;99.90;;;;;;5053514;28;20476;-60
2022/07/24 02:54:56;;;;;;;5.37;2.93;;;14.50;99.90;;;;;;5053733;28;20523;-61
2022/07/24 02:57:23;;;;;;;3.40;3.00;;;14.50;99.90;;;;;;5053839;28;20912;-61
2022/07/24 02:59:52;;;;;;;3.03;2.83;;;14.50;99.90;;;;;;5053840;28;20522;-60
2022/07/24 03:02:20;;;;;;;4.33;2.83;;;14.50;99.90;;;;;;5053438;28;20815;-60
2022/07/24 03:04:49;;;;;;;3.10;2.80;;;14.40;99.90;;;;;;5053256;28;20444;-61
2022/07/24 03:07:16;;;;;;;3.60;2.83;;;14.50;99.90;;;;;;5053642;28;20506;-61
2022/07/24 03:09:43;;;;;;;3.73;3.00;;;14.40;99.90;;;;;;5053357;28;20509;-61
2022/07/24 03:12:11;;;;;;;3.03;2.50;;;14.40;99.90;;;;;;5053403;28;20846;-60
2022/07/24 03:14:39;;;;;;;3.17;2.70;;;14.40;99.90;;;;;;5053622;28;20517;-61
2022/07/24 03:17:06;;;;;;;2.60;2.40;;;14.40;99.90;;;;;;5053584;28;20570;-60
2022/07/24 03:19:33;;;;;;;3.60;3.30;;;14.40;99.90;;;;;;5053430;28;20582;-59
2022/07/24 03:22:02;;;;;;;2.67;2.40;;;14.40;99.90;;;;;;5053322;28;20468;-59
2022/07/24 03:24:29;;;;;;;4.83;2.77;;;14.40;99.90;;;;;;5053200;28;20792;-61
2022/07/24 03:26:57;;;;;;;5.50;2.40;;;14.40;99.90;;;;;;5053453;28;20472;-60
2022/07/24 03:29:24;;;;;;;5.00;2.83;;;14.50;99.90;;;;;;5052989;28;20449;-59
2022/07/24 03:31:51;;;;;;;2.77;2.57;;;14.50;99.90;;;;;;5052990;28;20525;-61
2022/07/24 03:34:19;;;;;;;4.13;2.47;;;14.40;99.90;;;;;;5055439;28;20459;-60
2022/07/24 03:36:46;;;;;;;3.30;3.00;;;14.50;99.90;;;;;;5055695;28;20468;-60
2022/07/24 03:39:15;;;;;;;3.03;2.53;;;14.40;99.90;;;;;;5053247;28;20860;-60
2022/07/24 03:41:42;;;;;;;3.43;2.77;;;14.50;99.90;;;;;;5055878;28;20929;-60
2022/07/24 03:44:10;;;;;;;3.73;2.57;;;14.50;99.90;;;;;;5055134;28;20452;-60
2022/07/24 03:46:37;;;;;;;3.20;2.83;;;14.50;99.90;;;;;;5054154;28;20441;-62
2022/07/24 03:49:05;;;;;;;2.43;2.23;;;14.50;99.90;;;;;;5053100;28;20444;-61
2022/07/24 03:51:34;;;;;;;3.20;2.83;;;14.50;99.90;;;;;;5053016;28;20468;-60
2022/07/24 03:54:02;;;;;;;3.20;2.37;;;14.50;99.90;;;;;;5052234;28;20531;-60
2022/07/24 03:56:31;;;;;;;4.10;2.90;;;14.60;99.90;;;;;;5052689;28;20484;-60
2022/07/24 03:58:58;;;;;;;2.57;2.37;;;14.60;99.90;;;;;;5051841;28;21020;-60
2022/07/24 04:01:26;;;;;;;4.60;2.83;;;14.60;99.90;;;;;;5052182;28;20518;-61
2022/07/24 04:03:53;;;;;;;3.00;2.30;;;14.70;99.90;;;;;;5053022;28;20855;-60
2022/07/24 04:06:20;;;;;;;4.77;2.50;;;14.70;99.90;;;;;;5053078;28;20498;-59
2022/07/24 04:10:02;;;;;;;2.60;2.40;;;14.70;99.90;;;;;;5100278;27;1537621;-61
2022/07/24 04:12:29;;;;;;;2.90;2.60;;;14.80;99.90;;;;;;5117202;28;20216;-60
2022/07/24 04:14:57;;;;;;;3.30;2.20;;;15.10;99.90;;;;;;5115022;28;20467;-60
2022/07/24 04:17:24;;;;;;;2.20;2.00;;;15.50;99.90;;;;;;5119894;28;20444;-60
2022/07/24 04:19:52;;;;;;;4.53;2.10;;;16.10;99.90;;;;;;5118833;28;20955;-60
2022/07/24 04:22:19;;;;;;;2.60;2.40;;;16.50;99.90;;;;;;5117092;28;20461;-60
2022/07/24 04:24:46;;;;;;;3.40;2.13;;;17.00;98.90;;;;;;5117964;28;20445;-60
2022/07/24 04:27:15;;;;;;;2.27;1.97;;;17.40;97.90;;;;;;5117180;28;20467;-59
2022/07/24 04:29:42;;;;;;;3.93;2.50;;;17.70;96.80;;;;;;5118338;28;20527;-60
2022/07/24 04:32:10;;;;;;;2.33;2.13;;;18.00;95.70;;;;;;5115952;28;21050;-61
2022/07/24 04:34:37;;;;;;;3.93;2.00;;;18.30;94.80;;;;;;5114305;28;20445;-60
2022/07/24 04:37:04;;;;;;;2.27;2.10;;;18.50;93.90;;;;;;5114230;28;20522;-59
2022/07/24 04:39:32;;;;;;;2.10;1.90;;;18.80;93.10;;;;;;5115395;28;20442;-60
2022/07/24 04:41:59;;;;;;;2.27;1.47;;;19.10;92.00;;;;;;5116251;28;20461;-60
2022/07/24 04:44:28;;;;;;;3.40;2.00;;;19.30;90.90;;;;;;5114088;28;20466;-59
2022/07/24 04:46:55;;;;;;;2.70;1.80;;;19.50;90.00;;;;;;5113808;28;20520;-60
2022/07/24 04:49:22;;;;;;;2.20;1.63;;;19.80;88.00;;;;;;5113996;28;20974;-58
2022/07/24 04:51:50;;;;;;;3.30;1.90;;;20.00;85.80;;;;;;5111349;28;20473;-60
2022/07/24 04:54:17;;;;;;;2.53;1.77;;;20.20;83.70;;;;;;5110918;28;20448;-59
2022/07/24 04:56:44;;;;;;;1.60;1.50;;;20.30;81.80;;;;;;5110482;28;20452;-61
2022/07/24 04:59:12;;;;;;;1.93;1.77;;;20.50;80.10;;;;;;5110027;28;20449;-60
2022/07/24 05:01:40;;;;;;;2.57;1.40;;;20.60;78.40;;;;;;5109975;28;20471;-61
2022/07/24 05:04:08;;;;;;;2.10;1.90;;;20.80;77.00;;;;;;5110277;28;20812;-59
2022/07/24 05:06:35;;;;;;;2.73;1.53;;;20.90;76.40;;;;;;5109563;28;20499;-61
2022/07/24 05:09:02;;;;;;;2.77;1.50;;;21.00;74.10;;;;;;5109482;28;20546;-61
2022/07/24 05:11:30;;;;;;;1.80;1.70;;;21.10;72.90;;;;;;5109844;28;20474;-61
2022/07/24 05:13:57;;;;;;;2.37;1.60;;;21.20;71.60;;;;;;5109360;28;20444;-59
2022/07/24 05:16:24;;;;;;;1.87;1.77;;;21.30;70.40;;;;;;5109473;28;20454;-60
2022/07/24 05:18:53;;;;;;;1.90;1.70;;;21.30;69.50;;;;;;5109403;28;20945;-62
2022/07/24 05:21:20;;;;;;;2.23;1.67;;;21.40;69.30;;;;;;5096247;28;20467;-59
2022/07/24 05:23:48;;;;;;;1.73;1.63;;;21.40;67.90;;;;;;5095983;28;20949;-61
2022/07/24 05:26:15;;;;;;;2.50;1.73;;;21.50;67.10;;;;;;5095633;28;20500;-60
2022/07/24 05:28:42;;;;;;;2.33;1.43;;;21.70;66.20;;;;;;5095493;28;20483;-61
2022/07/24 05:31:10;;;;;;;2.43;1.60;;;21.80;65.70;;;;;;5095662;28;20444;-61
2022/07/24 05:33:37;;;;;;;2.40;1.77;;;21.90;64.10;;;;;;5095677;28;20447;-60
2022/07/24 05:36:07;;;;;;;1.60;1.30;;;21.90;63.70;;;;;;5095399;28;20868;-60
2022/07/24 05:38:34;;;;;;;2.10;1.63;;;22.00;63.40;;;;;;5095592;28;20504;-61
2022/07/24 05:41:02;;;;;;;1.60;1.43;;;22.10;62.70;;;;;;5095363;28;20470;-60
2022/07/24 05:43:30;;;;;;;1.70;1.60;;;22.10;62.10;;;;;;5095319;28;20850;-61
2022/07/24 05:45:57;;;;;;;3.80;1.87;;;22.10;61.80;;;;;;5095571;28;20450;-60
2022/07/24 05:48:24;;;;;;;2.27;1.60;;;22.00;61.50;;;;;;5089959;22;20544;-57
2022/07/24 05:50:52;;;;;;;2.23;1.50;;;22.00;61.40;;;;;;5055655;28;20517;-57
2022/07/24 05:53:20;;;;;;;2.77;2.10;;;22.00;61.10;;;;;;5055580;28;20950;-57
2022/07/24 05:55:48;;;;;;;2.20;1.50;;;21.90;61.10;;;;;;5055289;28;20908;-58
2022/07/24 05:58:15;;;;;;;2.20;1.53;;;21.80;61.40;;;;;;5069170;28;21035;-57
2022/07/24 06:00:42;;;;;;;2.90;2.20;;;21.70;61.50;;;;;;5075447;28;20542;-57
2022/07/24 06:03:10;;;;;;;1.90;1.50;;;21.70;61.60;;;;;;5075347;28;20470;-57
2022/07/24 06:05:37;;;;;;;2.30;1.50;;;21.70;61.70;;;;;;5075031;28;20448;-58
2022/07/24 06:08:05;;;;;;;2.10;1.90;;;21.70;61.50;;;;;;5075023;28;20536;-57
2022/07/24 06:10:34;;;;;;;3.00;1.63;;;21.80;61.40;;;;;;5074914;28;20479;-57
2022/07/24 06:13:02;;;;;;;1.90;1.77;;;21.90;61.20;;;;;;5074733;28;20505;-57
2022/07/24 06:15:29;;;;;;;1.70;1.60;;;21.90;61.00;;;;;;5074494;28;20854;-57
2022/07/24 06:17:57;;;;;;;2.33;1.77;;;21.90;61.50;;;;;;5074779;28;20846;-57
2022/07/24 06:20:24;;;;;;;1.80;1.33;;;21.90;61.50;;;;;;5076429;28;20446;-58
2022/07/24 06:22:51;;;;;;;5.90;1.60;;;21.90;60.60;;;;;;5074847;28;20472;-57
2022/07/24 06:25:19;;;;;;;1.90;1.43;;;21.90;60.40;;;;;;5074447;28;20452;-58
2022/07/24 06:27:49;;;;;;;1.60;1.37;;;21.90;60.10;;;;;;5076300;28;20965;-58
2022/07/24 06:30:21;;;;;;;2.00;1.60;;;21.80;60.20;;;;;;5076607;28;20463;-59
2022/07/24 06:32:49;;;;;;;1.93;1.73;;;21.80;60.10;;;;;;5073988;28;20467;-58
2022/07/24 06:35:16;;;;;;;2.63;1.80;;;21.70;60.00;;;;;;5074680;28;21007;-58
2022/07/24 06:37:44;;;;;;;2.33;1.80;;;21.70;60.00;;;;;;5074479;28;20553;-57
2022/07/24 06:40:12;;;;;;;1.70;1.60;;;21.70;60.00;;;;;;5074585;28;20448;-57
2022/07/24 06:42:39;;;;;;;2.17;1.60;;;21.70;60.00;;;;;;5074369;28;20480;-56
2022/07/24 06:45:09;;;;;;;2.50;1.70;;;21.70;60.00;;;;;;5074446;28;20494;-56
2022/07/24 06:47:36;;;;;;;3.17;1.93;;;21.70;60.10;;;;;;5073971;28;20910;-56
2022/07/24 06:50:05;;;;;;;4.90;1.73;;;21.70;60.00;;;;;;5074031;28;20525;-56
2022/07/24 06:52:32;;;;;;;5.33;1.90;;;21.80;60.00;;;;;;5074516;28;20511;-57
2022/07/24 06:55:00;;;;;;;2.03;1.30;;;21.90;59.80;;;;;;5074201;28;20455;-57
2022/07/24 06:57:27;;;;;;;2.57;1.80;;;22.00;59.70;;;;;;5074501;28;20986;-58
2022/07/24 06:59:54;;;;;;;2.03;1.83;;;22.00;59.60;;;;;;5074122;28;20447;-57
2022/07/24 07:02:23;;;;;;;8.83;1.87;;;22.10;59.70;;;;;;5074138;28;20862;-55
2022/07/24 07:04:51;;;;;;;2.00;1.53;;;22.10;59.70;;;;;;5073749;28;20450;-58
2022/07/24 07:07:18;;;;;;;2.10;1.70;;;22.10;59.70;;;;;;5073760;28;21032;-58
2022/07/24 07:09:45;;;;;;;2.07;1.67;;;22.20;59.80;;;;;;5073324;28;20490;-57
2022/07/24 07:12:13;;;;;;;2.60;1.87;;;22.20;59.80;;;;;;5073645;28;20936;-58
2022/07/24 07:14:40;;;;;;;2.00;1.80;;;22.30;59.70;;;;;;5073354;28;20495;-58
2022/07/24 07:17:07;;;;;;;2.73;1.63;;;22.30;59.60;;;;;;5073597;28;20466;-58
2022/07/24 07:19:36;;;;;;;3.90;1.40;;;22.40;59.60;;;;;;5073536;28;20503;-58
2022/07/24 07:22:03;;;;;;;2.00;1.80;;;22.50;59.60;;;;;;5073453;28;20492;-58
2022/07/24 07:24:30;;;;;;;2.50;1.57;;;22.60;59.50;;;;;;5073100;28;20600;-58
2022/07/24 07:26:58;;;;;;;3.30;1.80;;;22.70;59.40;;;;;;5073046;28;20508;-58
2022/07/24 07:29:25;;;;;;;2.87;1.60;;;22.70;59.30;;;;;;5073236;28;20510;-57
2022/07/24 07:31:52;;;;;;;2.03;1.20;;;22.80;59.30;;;;;;5073254;28;20451;-58
2022/07/24 07:34:20;;;;;;;1.40;1.30;;;23.00;59.30;;;;;;5073046;28;20446;-58
2022/07/24 07:36:48;;;;;;;1.60;1.50;;;23.10;59.10;;;;;;5072941;28;20458;-59
2022/07/24 07:39:16;;;;;;;1.97;1.50;;;23.20;58.70;;;;;;5073150;28;20443;-58
2022/07/24 07:41:43;;;;;;;2.33;1.67;;;23.20;58.50;;;;;;5073318;28;20500;-57
2022/07/24 07:44:10;;;;;;;2.00;1.80;;;23.30;58.40;;;;;;5072984;28;20454;-56
2022/07/24 07:46:38;;;;;;;2.37;1.53;;;23.30;58.30;;;;;;5073159;28;20503;-59
2022/07/24 07:49:05;;;;;;;3.07;1.80;;;23.20;58.40;;;;;;5072961;28;20487;-58
2022/07/24 07:51:32;;;;;;;2.00;1.40;;;23.30;58.20;;;;;;5073204;28;20450;-58
2022/07/24 07:54:01;;;;;;;2.30;1.80;;;23.40;58.00;;;;;;5073217;28;20451;-57
2022/07/24 07:56:30;;;;;;;2.90;1.80;;;23.60;57.60;;;;;;5072955;28;20450;-58
2022/07/24 07:58:58;;;;;;;3.10;1.50;;;23.70;57.10;;;;;;5073290;28;20523;-59
2022/07/24 08:01:25;;;;;;;2.30;1.90;;;23.90;56.90;;;;;;5073258;28;20887;-59
2022/07/24 08:03:52;;;;;;;2.07;1.83;;;24.00;56.50;;;;;;5073089;28;20494;-58
2022/07/24 08:06:19;;;;;;;1.90;1.70;;;24.10;56.20;;;;;;5073078;28;20511;-59
2022/07/24 08:08:47;;;;;;;2.23;2.03;;;24.30;55.80;;;;;;5072712;28;20467;-59
2022/07/24 08:11:16;;;;;;;3.00;1.87;;;24.40;55.50;;;;;;5072995;28;20821;-59
2022/07/24 08:13:43;;;;;;;2.93;1.90;;;24.50;55.20;;;;;;5073046;28;20882;-59
2022/07/24 08:16:11;;;;;;;2.63;1.83;;;24.50;55.30;;;;;;5073783;28;20445;-58
2022/07/24 08:18:39;;;;;;;2.00;1.90;;;24.60;55.20;;;;;;5074677;28;20881;-57
2022/07/24 08:21:07;;;;;;;1.70;1.60;;;24.60;54.80;;;;;;5073112;28;20457;-58
2022/07/24 08:23:34;;;;;;;2.20;2.00;;;24.80;54.60;;;;;;5072707;28;20993;-58
2022/07/24 08:26:01;;;;;;;3.40;1.80;;;24.80;54.30;;;;;;5072424;28;20457;-59
2022/07/24 08:28:30;;;;;;;1.80;1.70;;;24.90;54.10;;;;;;5072683;28;20493;-58
2022/07/24 08:30:57;;;;;;;1.93;1.83;;;25.10;53.70;;;;;;5072762;28;20806;-58
2022/07/24 08:33:25;;;;;;;2.37;2.17;;;25.20;53.30;;;;;;5072406;28;20496;-59
2022/07/24 08:35:52;;;;;;;2.60;2.13;;;25.40;52.90;;;;;;5072472;28;20443;-57
2022/07/24 08:38:19;;;;;;;1.80;1.70;;;25.50;52.30;;;;;;5072690;28;20465;-58
2022/07/24 08:40:47;;;;;;;2.93;1.80;;;25.60;51.80;;;;;;5072737;28;20450;-57
2022/07/24 08:43:14;;;;;;;2.07;1.87;;;25.70;51.40;;;;;;5072695;28;20506;-58
2022/07/24 08:45:44;;;;;;;1.87;1.77;;;25.80;51.20;;;;;;5072765;28;20468;-57
2022/07/24 08:48:12;;;;;;;3.17;2.20;;;25.80;51.00;;;;;;5072719;28;21024;-58
2022/07/24 08:50:42;;;;;;;3.57;2.60;;;25.80;50.90;;;;;;5072718;28;20479;-57
2022/07/24 08:53:10;;;;;;;2.57;2.20;;;25.80;50.80;;;;;;5073439;28;20463;-56
2022/07/24 08:55:38;;;;;;;2.63;2.40;;;25.90;50.70;;;;;;5074498;28;20542;-57
2022/07/24 08:58:05;;;;;;;3.23;2.33;;;26.00;50.50;;;;;;5076294;28;20510;-57
2022/07/24 09:00:34;;;;;;;2.20;2.00;;;26.20;50.10;;;;;;5076827;28;20446;-57
2022/07/24 09:03:02;;;;;;;2.40;2.13;;;26.40;49.70;;;;;;5076743;28;20959;-57
2022/07/24 09:05:32;;;;;;;2.27;2.07;;;26.50;49.30;;;;;;5076608;28;20452;-57
2022/07/24 09:08:11;;;;;;;4.20;2.30;;;26.70;49.00;;;;;;5075686;28;20476;-57
2022/07/24 09:10:39;;;;;;;2.60;2.30;;;26.80;48.60;;;;;;5075827;28;20480;-57
2022/07/24 09:13:16;;;;;;;2.47;2.27;;;26.90;48.40;;;;;;5075753;28;20449;-57
2022/07/24 09:15:47;;;;;;;2.93;2.63;;;27.00;48.00;;;;;;5075672;28;20556;-56
2022/07/24 09:18:29;;;;;;;2.67;2.47;;;27.10;47.70;;;;;;5075818;28;20471;-58
2022/07/24 09:20:56;;;;;;;3.30;3.00;;;27.30;47.40;;;;;;5075623;28;20430;-58
2022/07/24 09:23:24;;;;;;;2.93;2.63;;;27.40;47.20;;;;;;5076045;28;20816;-58
2022/07/24 09:25:53;;;;;;;7.60;2.60;;;27.40;46.70;;;;;;5075504;28;20442;-56
2022/07/24 09:28:20;;;;;;;3.40;3.10;;;27.60;46.30;;;;;;5075566;28;20470;-57
2022/07/24 09:30:49;;;;;;;3.07;2.73;;;27.60;45.70;;;;;;5075334;28;20473;-58
2022/07/24 09:33:19;;;;;;;2.77;2.57;;;27.60;45.50;;;;;;5075451;28;20980;-58
2022/07/24 09:35:50;;;;;;;3.13;2.60;;;27.60;45.40;;;;;;5075973;28;20441;-59
2022/07/24 09:38:19;;;;;;;3.23;2.93;;;27.70;45.40;;;;;;5075613;28;21023;-59
2022/07/24 09:40:48;;;;;;;3.20;2.90;;;27.80;45.20;;;;;;5075547;28;20445;-59
2022/07/24 09:43:19;;;;;;;5.57;2.90;;;27.90;45.00;;;;;;5075747;28;20442;-59
2022/07/24 09:46:02;;;;;;;5.97;3.00;;;28.00;44.60;;;;;;5075966;28;20446;-59
2022/07/24 09:48:33;;;;;;;3.90;3.40;;;28.10;44.00;;;;;;5076363;28;20530;-59
2022/07/24 09:51:04;;;;;;;3.30;2.97;;;28.10;43.40;;;;;;5075411;28;20464;-58
2022/07/24 09:53:34;;;;;;;2.90;2.60;;;28.10;42.90;;;;;;5075731;28;20436;-57
2022/07/24 09:56:05;;;;;;;5.20;4.57;;;28.00;42.50;;;;;;5076802;28;20549;-60
2022/07/24 09:58:34;;;;;;;3.83;3.53;;;28.10;42.10;;;;;;5076125;28;20834;-58
2022/07/24 10:01:02;;;;;;;5.00;4.20;;;28.10;41.80;;;;;;5075987;28;20446;-59
2022/07/24 10:03:33;;;;;;;4.60;4.20;;;28.00;41.80;;;;;;5077549;28;20512;-59
2022/07/24 10:06:03;;;;;;;5.13;3.80;;;27.90;42.00;;;;;;5076318;28;20434;-58
2022/07/24 10:08:32;;;;;;;5.20;3.70;;;27.90;42.10;;;;;;5079362;28;20828;-59
2022/07/24 10:11:00;;;;;;;4.37;3.47;;;27.90;42.30;;;;;;5078443;28;20508;-59
2022/07/24 10:13:29;;;;;;;4.00;3.23;;;28.00;42.40;;;;;;5074955;28;20451;-59
2022/07/24 10:16:17;;;;;;;6.30;5.00;;;28.20;42.20;;;;;;5075073;28;20474;-57
2022/07/24 10:18:49;;;;;;;4.90;4.30;;;28.20;41.90;;;;;;5075158;28;20965;-58
2022/07/24 10:21:20;;;;;;;5.70;5.13;;;28.20;41.70;;;;;;5074596;28;20430;-60
2022/07/24 10:24:27;;;;;;;4.70;4.30;;;28.10;41.60;;;;;;5074844;28;20433;-58
2022/07/24 10:27:03;;;;;;;5.47;4.40;;;28.10;41.50;;;;;;5074717;28;20430;-57
2022/07/24 10:29:34;;;;;;;4.20;3.80;;;28.10;41.60;;;;;;5074563;28;20435;-58
2022/07/24 10:32:01;;;;;;;4.90;3.90;;;28.30;41.50;;;;;;5074642;28;20831;-59
2022/07/24 10:34:34;;;;;;;3.70;3.40;;;28.40;41.40;;;;;;5074601;28;20441;-57
2022/07/24 10:37:11;;;;;;;3.90;3.50;;;28.70;41.20;;;;;;5074406;28;20517;-59
2022/07/24 10:39:44;;;;;;;4.93;4.50;;;28.90;40.60;;;;;;5074143;28;20473;-58
2022/07/24 10:42:11;;;;;;;5.23;4.47;;;29.20;40.30;;;;;;5074377;28;20479;-60
2022/07/24 10:44:39;;;;;;;4.10;3.80;;;29.30;39.70;;;;;;5074633;28;20444;-60
2022/07/24 10:47:08;;;;;;;5.40;4.10;;;29.50;39.30;;;;;;5074392;28;20938;-59
2022/07/24 10:49:53;;;;;;;5.03;4.53;;;29.60;38.90;;;;;;5074137;28;20481;-59
2022/07/24 10:52:32;;;;;;;4.60;3.80;;;29.50;38.10;;;;;;5074406;28;20414;-58
2022/07/24 10:55:26;;;;;;;4.90;3.90;;;29.30;38.30;;;;;;5074272;28;20428;-59
2022/07/24 10:57:59;;;;;;;4.20;3.80;;;29.20;38.60;;;;;;5074342;28;20473;-60
2022/07/24 11:00:32;;;;;;;4.87;4.37;;;29.20;38.60;;;;;;5074040;28;20907;-59
2022/07/24 11:03:02;;;;;;;4.30;3.90;;;29.30;38.30;;;;;;5075337;28;20435;-58
2022/07/24 11:05:34;;;;;;;4.30;3.90;;;29.30;38.20;;;;;;5074086;28;20500;-58
2022/07/24 11:08:32;;;;;;;4.50;4.10;;;29.40;38.20;;;;;;5074256;28;20469;-58
2022/07/24 11:11:13;;;;;;;4.83;4.23;;;29.60;38.10;;;;;;5059152;28;20603;-58
2022/07/24 11:13:46;;;;;;;4.93;4.40;;;29.80;38.20;;;;;;5073758;28;20966;-58
2022/07/24 11:16:25;;;;;;;4.43;4.03;;;29.80;38.00;;;;;;5073676;28;20426;-58
2022/07/24 11:19:28;;;;;;;4.87;4.40;;;29.90;37.90;;;;;;5074135;28;20469;-58
2022/07/24 11:22:13;;;;;;;4.63;4.23;;;30.00;37.70;;;;;;5073544;28;20959;-58
2022/07/24 11:25:07;;;;;;;4.70;4.30;;;30.00;37.40;;;;;;5083442;28;20428;-58
2022/07/24 11:28:04;;;;;;;5.83;5.23;;;30.10;37.40;;;;;;5074795;28;20468;-58
2022/07/24 11:30:32;;;;;;;5.70;4.60;;;30.00;37.30;;;;;;5072863;28;20564;-59
2022/07/24 11:33:00;;;;;;;4.40;4.10;;;29.90;37.50;;;;;;5073447;28;20506;-58
2022/07/24 11:35:29;;;;;;;5.50;5.00;;;29.80;37.70;;;;;;5073225;28;20872;-60
2022/07/24 11:38:00;;;;;;;5.50;5.00;;;29.80;37.80;;;;;;5076339;28;20474;-59
2022/07/24 11:40:27;;;;;;;5.63;5.13;;;30.00;37.80;;;;;;5094157;28;20786;-58
2022/07/24 11:43:00;;;;;;;4.90;4.40;;;30.10;37.50;;;;;;5082813;28;20820;-58
2022/07/24 11:45:28;;;;;;;6.10;5.50;;;30.40;37.60;;;;;;5093922;28;20445;-59
2022/07/24 11:47:59;;;;;;;4.60;4.30;;;30.60;37.20;;;;;;5093128;28;20483;-58
2022/07/24 11:50:28;;;;;;;5.57;5.10;;;30.70;37.30;;;;;;5093656;28;20975;-57
2022/07/24 11:52:56;;;;;;;6.67;4.63;;;30.70;36.20;;;;;;5093830;28;20442;-61
2022/07/24 11:55:25;;;;;;;4.90;4.50;;;30.60;36.00;;;;;;5093940;28;20449;-60
2022/07/24 11:57:54;;;;;;;4.93;4.37;;;30.40;36.20;;;;;;5093458;28;20471;-60
2022/07/24 12:00:26;;;;;;;4.63;4.23;;;30.60;36.60;;;;;;5093785;28;20443;-59
2022/07/24 12:02:56;;;;;;;4.40;4.10;;;31.10;36.30;;;;;;5104723;22;20494;-61
2022/07/24 12:05:28;;;;;;;4.83;4.33;;;31.90;35.10;;;;;;5053751;28;20697;-65
2022/07/24 12:07:57;;;;;;;5.33;4.83;;;32.70;33.70;;;;;;5053486;28;20496;-62
2022/07/24 12:10:25;;;;;;;4.50;4.10;;;33.30;32.80;;;;;;5052614;28;20568;-61
2022/07/24 12:12:54;;;;;;;5.20;4.73;;;33.80;32.00;;;;;;5060303;28;20452;-61
2022/07/24 12:15:24;;;;;;;6.30;5.00;;;34.00;31.60;;;;;;5073000;28;20537;-59
2022/07/24 12:17:57;;;;;;;7.67;4.70;;;34.10;31.30;;;;;;5073095;28;20809;-60
2022/07/24 12:20:26;;;;;;;5.43;4.83;;;34.10;31.00;;;;;;5072812;28;20453;-61
2022/07/24 12:22:54;;;;;;;5.10;4.60;;;34.10;31.10;;;;;;5073418;28;20503;-61
2022/07/24 12:25:23;;;;;;;5.13;4.73;;;34.20;31.10;;;;;;5073200;28;20453;-60
2022/07/24 12:27:52;;;;;;;4.53;4.13;;;34.40;30.90;;;;;;5072707;28;20455;-61
2022/07/24 12:30:28;;;;;;;4.67;4.30;;;34.40;30.60;;;;;;5074234;28;20499;-61
2022/07/24 12:32:57;;;;;;;4.80;4.40;;;34.30;30.80;;;;;;5076905;28;20470;-60
2022/07/24 12:35:25;;;;;;;5.30;4.60;;;34.10;30.80;;;;;;5076979;28;20450;-61
2022/07/24 12:37:53;;;;;;;6.13;4.17;;;34.00;30.80;;;;;;5076808;28;20529;-61
2022/07/24 12:40:29;;;;;;;4.33;4.03;;;33.80;31.00;;;;;;5076892;28;20512;-61
2022/07/24 12:42:59;;;;;;;4.97;4.47;;;33.30;31.50;;;;;;5077148;28;20523;-61
2022/07/24 12:45:28;;;;;;;5.30;4.80;;;33.00;32.00;;;;;;5076004;28;20445;-60
2022/07/24 12:48:18;;;;;;;5.20;4.80;;;32.70;32.40;;;;;;5076572;28;20815;-61
2022/07/24 12:51:09;;;;;;;4.50;4.10;;;32.40;32.90;;;;;;5076939;28;20477;-60
2022/07/24 12:53:39;;;;;;;5.03;4.73;;;32.10;33.40;;;;;;5076446;28;20522;-60
2022/07/24 12:56:12;;;;;;;4.80;4.40;;;31.90;33.90;;;;;;5076564;28;20450;-61
2022/07/24 12:58:54;;;;;;;5.03;4.47;;;31.80;34.10;;;;;;5083564;28;20441;-60
2022/07/24 13:01:24;;;;;;;4.90;4.50;;;31.90;34.20;;;;;;5083832;28;20433;-60